Time;durP1;ratioP1;P1;durP2;ratioP2;P2;SDS_P1;SDS_P2;PMS_P1;PMS_P2;Temp;Humidity;BMP_temperature;BMP_pressure;BME280_temperature;BME280_humidity;BME280_pressure;Samples;Min_cycle;Max_cycle;Signal;HPM_P1;HPM_P2
2024/01/12 00:00:09;;;;;;;39.63;20.67;;;;;;;0.62;100.00;103258.16;5092871;28;20031;-59
2024/01/12 00:02:34;;;;;;;37.47;19.23;;;;;;;0.60;100.00;103256.38;5092083;28;20491;-59
2024/01/12 00:05:00;;;;;;;39.90;19.43;;;;;;;0.55;100.00;103252.78;5092274;28;20039;-60
2024/01/12 00:07:25;;;;;;;42.13;19.97;;;;;;;0.63;100.00;103273.00;5092115;28;20031;-60
2024/01/12 00:09:50;;;;;;;38.10;19.00;;;;;;;0.65;100.00;103252.97;5092960;28;20371;-60
2024/01/12 00:12:16;;;;;;;37.73;18.33;;;;;;;0.58;100.00;103256.31;5092758;28;20024;-59
2024/01/12 00:14:42;;;;;;;37.07;18.00;;;;;;;0.63;100.00;103266.91;5093454;28;20032;-59
2024/01/12 00:17:07;;;;;;;42.10;18.83;;;;;;;0.62;100.00;103271.25;5093624;28;20016;-60
2024/01/12 00:19:33;;;;;;;37.17;17.40;;;;;;;0.63;100.00;103272.13;5092047;28;20050;-60
2024/01/12 00:21:58;;;;;;;44.60;19.70;;;;;;;0.50;100.00;103249.19;5093308;28;20158;-60
2024/01/12 00:24:24;;;;;;;37.23;17.97;;;;;;;0.63;100.00;103266.91;5090369;28;20016;-60
2024/01/12 00:26:49;;;;;;;37.53;18.80;;;;;;;0.55;100.00;103251.03;5091988;28;20463;-60
2024/01/12 00:29:15;;;;;;;39.13;18.23;;;;;;;0.53;100.00;103241.38;5090590;28;20032;-60
2024/01/12 00:31:40;;;;;;;39.33;18.67;;;;;;;0.59;100.00;103259.81;5092577;28;20020;-60
2024/01/12 00:34:06;;;;;;;37.37;18.83;;;;;;;0.54;100.00;103249.28;5091474;28;20471;-60
2024/01/12 00:36:31;;;;;;;46.27;18.80;;;;;;;0.62;100.00;103273.00;5091156;28;20395;-60
2024/01/12 00:38:56;;;;;;;40.20;18.97;;;;;;;0.61;100.00;103266.84;5091921;28;20126;-60
2024/01/12 00:41:23;;;;;;;41.17;19.50;;;;;;;0.51;100.00;103251.84;5092164;28;20466;-60
2024/01/12 00:43:48;;;;;;;41.53;19.40;;;;;;;0.56;100.00;103262.38;5092739;28;20027;-60
2024/01/12 00:46:14;;;;;;;35.47;19.00;;;;;;;0.61;100.00;103273.81;5092298;28;20048;-60
2024/01/12 00:48:39;;;;;;;36.80;18.13;;;;;;;0.62;100.00;103266.00;5092912;28;20027;-61
2024/01/12 00:51:05;;;;;;;38.17;19.70;;;;;;;0.59;100.00;103265.97;5089996;28;20035;-59
2024/01/12 00:53:31;;;;;;;39.00;20.10;;;;;;;0.60;100.00;103286.03;5092194;28;20028;-60
2024/01/12 00:55:56;;;;;;;42.37;20.30;;;;;;;0.62;100.00;103288.72;5090976;28;20030;-60
2024/01/12 00:58:21;;;;;;;37.80;18.70;;;;;;;0.61;100.00;103279.94;5090451;28;20133;-60
2024/01/12 01:00:47;;;;;;;48.70;18.90;;;;;;;0.52;100.00;103265.81;5091445;28;20048;-60
2024/01/12 01:03:15;;;;;;;36.00;19.20;;;;;;;0.61;100.00;103282.56;5092262;28;20024;-60
2024/01/12 01:05:40;;;;;;;44.07;20.33;;;;;;;0.61;100.00;103277.31;5091076;28;20081;-60
2024/01/12 01:08:05;;;;;;;38.80;19.53;;;;;;;0.61;100.00;103285.19;5091411;28;20031;-60
2024/01/12 01:10:31;;;;;;;45.43;20.37;;;;;;;0.60;100.00;103266.84;5090305;28;20027;-60
2024/01/12 01:12:56;;;;;;;35.00;19.93;;;;;;;0.53;100.00;103262.34;5091705;28;20478;-60
2024/01/12 01:15:21;;;;;;;39.33;18.97;;;;;;;0.52;100.00;103253.59;5090233;28;20110;-59
2024/01/12 01:17:47;;;;;;;47.27;21.53;;;;;;;0.62;100.00;103273.00;5090958;28;20107;-59
2024/01/12 01:20:16;;;;;;;47.97;21.63;;;;;;;0.56;100.00;103262.38;5092553;28;20024;-60
2024/01/12 01:22:41;;;;;;;41.20;20.13;;;;;;;0.63;100.00;103285.22;5092160;28;20062;-60
2024/01/12 01:25:07;;;;;;;40.80;19.47;;;;;;;0.64;100.00;103289.59;5090517;28;20059;-60
2024/01/12 01:27:32;;;;;;;37.60;18.57;;;;;;;0.62;100.00;103286.97;5092878;28;20032;-59
2024/01/12 01:30:00;;;;;;;39.77;19.80;;;;;;;0.66;100.00;103295.75;5091027;28;20023;-59
2024/01/12 01:32:25;;;;;;;37.33;20.20;;;;;;;0.61;100.00;103287.78;5091178;28;20032;-59
2024/01/12 01:34:51;;;;;;;40.50;19.83;;;;;;;0.65;100.00;103296.63;5091290;28;20455;-59
2024/01/12 01:37:16;;;;;;;39.00;19.73;;;;;;;0.64;100.00;103305.31;5092197;28;20032;-60
2024/01/12 01:39:41;;;;;;;35.10;18.57;;;;;;;0.64;100.00;103306.19;5090555;28;20070;-60
2024/01/12 01:42:07;;;;;;;42.57;19.67;;;;;;;0.64;100.00;103318.41;5092080;28;20028;-59
2024/01/12 01:44:32;;;;;;;47.20;20.50;;;;;;;0.63;100.00;103317.53;5091741;28;20048;-59
2024/01/12 01:47:01;;;;;;;35.90;20.07;;;;;;;0.61;100.00;103321.84;5091245;28;20043;-59
2024/01/12 01:49:27;;;;;;;48.47;20.83;;;;;;;0.57;100.00;103316.53;5092283;28;20055;-59
2024/01/12 01:51:52;;;;;;;42.20;18.87;;;;;;;0.61;100.00;103311.38;5091542;28;20475;-59
2024/01/12 01:54:19;;;;;;;40.47;19.40;;;;;;;0.63;100.00;103320.13;5091713;28;20418;-59
2024/01/12 01:56:46;;;;;;;34.23;19.37;;;;;;;0.65;100.00;103313.19;5091183;28;20032;-59
2024/01/12 01:59:12;;;;;;;45.83;20.17;;;;;;;0.66;100.00;103311.47;5091432;28;20082;-59
2024/01/12 02:01:40;;;;;;;41.07;20.10;;;;;;;0.66;100.00;103314.97;5090794;28;20024;-60
2024/01/12 02:04:07;;;;;;;38.67;19.07;;;;;;;0.62;100.00;103307.03;5091675;28;20020;-59
2024/01/12 02:06:35;;;;;;;47.63;20.80;;;;;;;0.65;100.00;103309.72;5091854;28;20054;-60
2024/01/12 02:09:03;;;;;;;47.07;21.63;;;;;;;0.64;100.00;103305.31;5090544;28;20028;-59
2024/01/12 02:11:29;;;;;;;44.23;19.17;;;;;;;0.63;100.00;103300.94;5091302;28;20115;-60
2024/01/12 02:13:54;;;;;;;41.97;20.30;;;;;;;0.56;100.00;103292.09;5091043;28;20436;-60
2024/01/12 02:16:20;;;;;;;45.17;20.87;;;;;;;0.62;100.00;103291.31;5090196;28;20024;-59
2024/01/12 02:18:45;;;;;;;44.03;19.33;;;;;;;0.62;100.00;103288.72;5091419;28;20051;-59
2024/01/12 02:21:11;;;;;;;48.73;21.43;;;;;;;0.62;100.00;103278.22;5091613;28;20028;-59
2024/01/12 02:23:36;;;;;;;45.03;20.53;;;;;;;0.57;100.00;103280.75;5090122;28;20024;-59
2024/01/12 02:26:01;;;;;;;41.73;18.40;;;;;;;0.62;100.00;103284.34;5091248;28;20085;-59
2024/01/12 02:28:27;;;;;;;45.57;19.63;;;;;;;0.62;100.00;103296.56;5089790;28;20043;-59
2024/01/12 02:30:52;;;;;;;42.37;18.90;;;;;;;0.62;100.00;103294.81;5089888;28;20024;-59
2024/01/12 02:33:18;;;;;;;39.27;19.40;;;;;;;0.62;100.00;103293.94;5090208;28;20058;-59
2024/01/12 02:35:43;;;;;;;43.73;20.50;;;;;;;0.62;100.00;103296.56;5091509;28;20024;-59
2024/01/12 02:38:08;;;;;;;41.03;18.90;;;;;;;0.61;100.00;103292.16;5091471;28;20043;-59
2024/01/12 02:40:34;;;;;;;36.13;18.07;;;;;;;0.60;100.00;103290.41;5091279;28;20031;-59
2024/01/12 02:43:01;;;;;;;40.10;19.23;;;;;;;0.54;100.00;103285.94;5089768;28;20466;-59
2024/01/12 02:45:26;;;;;;;40.90;18.60;;;;;;;0.64;100.00;103297.44;5090675;28;20090;-59
2024/01/12 02:47:51;;;;;;;39.63;20.60;;;;;;;0.62;100.00;103292.19;5090459;28;20052;-59
2024/01/12 02:50:17;;;;;;;41.20;20.57;;;;;;;0.64;100.00;103300.06;5091036;28;20028;-59
2024/01/12 02:52:42;;;;;;;38.30;18.80;;;;;;;0.62;100.00;103289.59;5091360;28;20063;-59
2024/01/12 02:55:08;;;;;;;40.40;20.43;;;;;;;0.65;100.00;103279.16;5089150;28;20515;-59
2024/01/12 02:57:33;;;;;;;39.77;19.70;;;;;;;0.57;100.00;103264.16;5090370;28;20395;-59
2024/01/12 02:59:59;;;;;;;42.87;20.73;;;;;;;0.64;100.00;103273.88;5091141;28;20040;-59
2024/01/12 03:02:24;;;;;;;46.00;21.47;;;;;;;0.64;100.00;103266.91;5089570;28;20024;-59
2024/01/12 03:04:50;;;;;;;43.60;19.10;;;;;;;0.64;100.00;103260.78;5091023;28;20024;-59
2024/01/12 03:07:15;;;;;;;41.57;21.50;;;;;;;0.58;100.00;103243.22;5089829;28;20036;-59
2024/01/12 03:09:41;;;;;;;46.27;20.57;;;;;;;0.63;100.00;103272.13;5091340;28;20036;-59
2024/01/12 03:12:07;;;;;;;42.03;19.13;;;;;;;0.63;100.00;103272.13;5089160;28;20059;-59
2024/01/12 03:14:32;;;;;;;44.93;20.43;;;;;;;0.65;100.00;103260.84;5090930;28;20494;-59
2024/01/12 03:16:57;;;;;;;44.73;19.93;;;;;;;0.65;100.00;103273.06;5091183;28;20016;-59
2024/01/12 03:19:23;;;;;;;39.33;19.67;;;;;;;0.65;100.00;103262.56;5089925;28;20605;-59
2024/01/12 03:21:48;;;;;;;44.73;19.03;;;;;;;0.57;100.00;103248.47;5089734;28;20020;-59
2024/01/12 03:24:14;;;;;;;43.63;20.23;;;;;;;0.65;100.00;103263.44;5090507;28;20024;-59
2024/01/12 03:26:39;;;;;;;46.50;20.67;;;;;;;0.64;100.00;103263.41;5089193;28;20107;-59
2024/01/12 03:29:04;;;;;;;42.87;21.23;;;;;;;0.63;100.00;103259.03;5090214;28;20024;-59
2024/01/12 03:31:30;;;;;;;44.97;19.73;;;;;;;0.63;100.00;103259.91;5089306;28;20035;-59
2024/01/12 03:33:55;;;;;;;42.60;19.93;;;;;;;0.62;100.00;103255.53;5089402;28;20036;-59
2024/01/12 03:36:22;;;;;;;43.73;18.63;;;;;;;0.53;100.00;103241.38;5089926;28;20081;-59
2024/01/12 03:38:48;;;;;;;42.90;19.17;;;;;;;0.57;100.00;103251.06;5090796;28;20032;-59
2024/01/12 03:41:14;;;;;;;43.63;20.47;;;;;;;0.63;100.00;103262.53;5106439;28;20107;-59
2024/01/12 03:43:39;;;;;;;46.23;21.07;;;;;;;0.58;100.00;103258.06;5091022;28;20036;-59
2024/01/12 03:46:05;;;;;;;45.97;20.67;;;;;;;0.62;100.00;103266.00;5089688;28;20048;-59
2024/01/12 03:48:31;;;;;;;44.43;20.23;;;;;;;0.54;100.00;103237.94;5090843;28;20032;-59
2024/01/12 03:50:56;;;;;;;39.50;19.47;;;;;;;0.64;100.00;103255.56;5090775;28;20068;-59
2024/01/12 03:53:21;;;;;;;42.20;20.37;;;;;;;0.54;100.00;103235.31;5090889;28;20032;-59
2024/01/12 03:55:47;;;;;;;37.33;19.77;;;;;;;0.63;100.00;103251.19;5088563;28;20039;-59
2024/01/12 03:58:12;;;;;;;41.97;20.20;;;;;;;0.62;100.00;103252.94;5091487;28;20028;-59
2024/01/12 04:00:40;;;;;;;46.90;20.07;;;;;;;0.62;100.00;103241.56;5113058;28;20023;-59
2024/01/12 04:03:05;;;;;;;40.17;19.10;;;;;;;0.63;100.00;103251.19;5093551;28;20028;-59
2024/01/12 04:05:30;;;;;;;40.67;21.33;;;;;;;0.62;100.00;103244.19;5092253;28;20074;-59
2024/01/12 04:07:56;;;;;;;41.40;18.83;;;;;;;0.57;100.00;103233.63;5091926;28;20491;-59
2024/01/12 04:10:21;;;;;;;41.70;19.47;;;;;;;0.62;100.00;103244.19;5093217;28;20526;-59
2024/01/12 04:12:49;;;;;;;40.50;20.13;;;;;;;0.60;100.00;103246.78;5093939;28;20032;-59
2024/01/12 04:15:14;;;;;;;41.93;20.73;;;;;;;0.62;100.00;103246.81;5092601;28;20403;-59
2024/01/12 04:17:39;;;;;;;44.87;19.63;;;;;;;0.60;100.00;103238.91;5093020;28;20028;-59
2024/01/12 04:20:07;;;;;;;50.03;21.47;;;;;;;0.61;100.00;103243.28;5093686;28;20040;-59
2024/01/12 04:22:33;;;;;;;44.20;19.77;;;;;;;0.55;100.00;103224.84;5093924;28;20084;-59
2024/01/12 04:24:59;;;;;;;41.97;19.07;;;;;;;0.64;100.00;103242.47;5092795;28;20035;-59
2024/01/12 04:27:26;;;;;;;42.90;19.33;;;;;;;0.65;100.00;103245.13;5093422;28;20036;-59
2024/01/12 04:29:52;;;;;;;39.07;19.43;;;;;;;0.65;100.00;103246.88;5093827;28;20024;-59
2024/01/12 04:32:17;;;;;;;43.50;20.17;;;;;;;0.59;100.00;103238.88;5093497;28;20032;-59
2024/01/12 04:34:42;;;;;;;35.07;18.87;;;;;;;0.64;100.00;103243.34;5093914;28;20024;-59
2024/01/12 04:37:08;;;;;;;45.03;21.13;;;;;;;0.64;100.00;103255.56;5092708;28;20031;-59
2024/01/12 04:39:33;;;;;;;44.70;21.03;;;;;;;0.64;100.00;103252.94;5093283;28;20031;-59
2024/01/12 04:41:59;;;;;;;46.23;21.07;;;;;;;0.65;100.00;103254.72;5092034;28;20119;-59
2024/01/12 04:44:24;;;;;;;42.80;20.70;;;;;;;0.68;100.00;103254.75;5093045;28;20463;-59
2024/01/12 04:46:50;;;;;;;40.10;19.60;;;;;;;0.66;100.00;103248.63;5093626;28;20072;-59
2024/01/12 04:49:16;;;;;;;44.77;19.80;;;;;;;0.69;100.00;103248.66;5091919;28;20032;-59
2024/01/12 04:51:43;;;;;;;40.60;20.20;;;;;;;0.70;100.00;103255.66;5093471;28;20012;-59
2024/01/12 04:54:09;;;;;;;41.83;20.95;;;;;;;0.65;100.00;103250.34;5091964;28;20085;-59
2024/01/12 04:56:34;;;;;;;39.80;20.43;;;;;;;0.60;100.00;103238.91;5093233;28;20023;-59
2024/01/12 04:58:59;;;;;;;48.37;20.93;;;;;;;0.67;100.00;103252.97;5092792;28;20510;-59
2024/01/12 05:01:25;;;;;;;36.77;20.00;;;;;;;0.57;100.00;103230.13;5092710;28;20024;-59
2024/01/12 05:03:51;;;;;;;37.27;19.67;;;;;;;0.68;100.00;103244.28;5093143;28;20666;-59
2024/01/12 05:06:17;;;;;;;40.73;20.00;;;;;;;0.62;100.00;103242.44;5092741;28;20107;-59
2024/01/12 05:08:42;;;;;;;39.97;19.77;;;;;;;0.63;100.00;103241.59;5092794;28;20112;-59
2024/01/12 05:11:07;;;;;;;38.73;19.50;;;;;;;0.70;100.00;103254.78;5092810;28;20031;-59
2024/01/12 05:13:33;;;;;;;43.00;19.47;;;;;;;0.69;100.00;103248.66;5092851;28;20485;-59
2024/01/12 05:15:58;;;;;;;37.63;20.47;;;;;;;0.68;100.00;103239.94;5092893;28;20024;-59
2024/01/12 05:18:24;;;;;;;38.47;19.40;;;;;;;0.67;100.00;103237.28;5092466;28;20526;-59
2024/01/12 05:20:49;;;;;;;43.87;20.37;;;;;;;0.65;100.00;103226.78;5092878;28;20028;-59
2024/01/12 05:23:14;;;;;;;39.53;19.43;;;;;;;0.63;100.00;103220.63;5092273;28;20099;-59
2024/01/12 05:25:42;;;;;;;39.27;20.40;;;;;;;0.64;100.00;103232.84;5091181;28;20024;-59
2024/01/12 05:28:08;;;;;;;42.33;20.90;;;;;;;0.66;100.00;103235.53;5092644;28;20479;-59
2024/01/12 05:30:33;;;;;;;36.43;18.80;;;;;;;0.68;100.00;103245.16;5092390;28;20031;-59
2024/01/12 05:33:01;;;;;;;41.73;18.63;;;;;;;0.69;100.00;103227.72;5092268;28;20032;-59
2024/01/12 05:35:27;;;;;;;45.67;19.53;;;;;;;0.62;100.00;103220.63;5074653;28;20028;-59
2024/01/12 05:37:52;;;;;;;38.07;18.67;;;;;;;0.70;100.00;103232.09;5091470;28;20065;-60
2024/01/12 05:40:18;;;;;;;39.90;20.20;;;;;;;0.71;100.00;103235.56;5090951;28;20510;-59
2024/01/12 05:42:44;;;;;;;38.77;18.40;;;;;;;0.72;100.00;103232.13;5092764;28;20024;-59
2024/01/12 05:45:09;;;;;;;33.83;18.00;;;;;;;0.69;100.00;103232.94;5091060;28;20048;-59
2024/01/12 05:47:36;;;;;;;36.93;17.60;;;;;;;0.68;100.00;103236.44;5090896;28;20040;-59
2024/01/12 05:50:01;;;;;;;38.60;19.60;;;;;;;0.66;100.00;103236.41;5091853;28;20042;-59
2024/01/12 05:52:27;;;;;;;40.50;18.60;;;;;;;0.71;100.00;103236.47;5091057;28;20103;-59
2024/01/12 05:54:55;;;;;;;39.20;19.47;;;;;;;0.73;100.00;103240.00;5091760;28;20028;-59
2024/01/12 05:57:20;;;;;;;44.07;18.33;;;;;;;0.66;100.00;103230.28;5092007;28;20032;-59
2024/01/12 05:59:46;;;;;;;38.40;19.83;;;;;;;0.74;100.00;103243.50;5090824;28;20068;-59
2024/01/12 06:02:14;;;;;;;37.93;17.00;;;;;;;0.76;100.00;103244.41;5091368;28;20364;-59
2024/01/12 06:04:40;;;;;;;36.27;17.37;;;;;;;0.72;100.00;103235.63;5092299;28;20020;-59
2024/01/12 06:07:05;;;;;;;41.67;17.90;;;;;;;0.79;100.00;103250.56;5091328;28;20508;-59
2024/01/12 06:09:31;;;;;;;31.60;17.13;;;;;;;0.81;100.00;103250.59;5090275;28;20028;-59
2024/01/12 06:11:56;;;;;;;37.03;16.73;;;;;;;0.81;100.00;103256.72;5089523;28;20059;-59
2024/01/12 06:14:22;;;;;;;36.73;17.00;;;;;;;0.83;100.00;103259.38;5089405;28;20386;-59
2024/01/12 06:16:47;;;;;;;30.43;15.97;;;;;;;0.80;100.00;103249.72;5090275;28;20382;-59
2024/01/12 06:19:12;;;;;;;37.10;17.50;;;;;;;0.75;100.00;103240.91;5089628;28;20131;-59
2024/01/12 06:21:42;;;;;;;35.00;16.57;;;;;;;0.78;100.00;103246.19;5091222;28;20077;-59
2024/01/12 06:24:11;;;;;;;31.13;16.00;;;;;;;0.78;100.00;103259.28;5091029;28;20491;-59
2024/01/12 06:26:37;;;;;;;40.10;17.73;;;;;;;0.70;100.00;103245.19;5091111;28;20486;-59
2024/01/12 06:29:02;;;;;;;31.80;16.43;;;;;;;0.77;100.00;103260.16;5089916;28;20028;-59
2024/01/12 06:31:31;;;;;;;39.80;15.50;;;;;;;0.79;100.00;103266.28;5090905;28;20478;-59
2024/01/12 06:33:56;;;;;;;30.80;15.07;;;;;;;0.78;100.00;103258.41;5091531;28;20028;-59
2024/01/12 06:36:21;;;;;;;32.53;15.60;;;;;;;0.80;100.00;103269.81;5091856;28;20027;-59
2024/01/12 06:38:47;;;;;;;42.43;16.23;;;;;;;0.78;100.00;103269.75;5091623;28;20028;-59
2024/01/12 06:41:12;;;;;;;30.17;15.27;;;;;;;0.80;100.00;103275.03;5090391;28;20475;-59
2024/01/12 06:43:38;;;;;;;33.47;14.47;;;;;;;0.80;100.00;103273.31;5091338;28;20031;-59
2024/01/12 06:46:05;;;;;;;29.50;14.93;;;;;;;0.77;100.00;103264.53;5087965;28;20509;-59
2024/01/12 06:48:30;;;;;;;29.30;14.43;;;;;;;0.80;100.00;103270.69;5086604;28;20497;-59
2024/01/12 06:50:56;;;;;;;27.90;14.23;;;;;;;0.74;100.00;103261.84;5089929;28;20123;-60
2024/01/12 06:53:21;;;;;;;29.83;14.77;;;;;;;0.80;100.00;103283.78;5091454;28;20114;-59
2024/01/12 06:55:46;;;;;;;33.17;14.50;;;;;;;0.82;100.00;103278.56;5091103;28;20032;-59
2024/01/12 06:58:12;;;;;;;26.88;14.38;;;;;;;0.83;100.00;103280.34;5090704;28;20052;-59
2024/01/12 07:00:37;;;;;;;31.27;14.93;;;;;;;0.83;100.00;103282.94;5090886;28;20024;-60
2024/01/12 07:03:03;;;;;;;28.70;14.83;;;;;;;0.81;100.00;103279.41;5088975;28;20005;-59
2024/01/12 07:05:29;;;;;;;24.00;12.63;;;;;;;0.81;100.00;103282.91;5089699;28;20070;-59
2024/01/12 07:07:54;;;;;;;27.73;12.97;;;;;;;0.85;100.00;103289.06;5091588;28;20428;-59
2024/01/12 07:10:20;;;;;;;19.00;11.68;;;;;;;0.86;100.00;103285.63;5089538;28;20110;-59
2024/01/12 07:12:47;;;;;;;22.93;12.50;;;;;;;0.87;100.00;103274.28;5089539;28;20471;-59
2024/01/12 07:15:12;;;;;;;29.60;11.47;;;;;;;0.88;100.00;103281.25;5090281;28;20445;-59
2024/01/12 07:17:38;;;;;;;25.33;12.68;;;;;;;0.88;100.00;103276.03;5089699;28;20111;-59
2024/01/12 07:20:05;;;;;;;21.53;12.00;;;;;;;0.86;100.00;103273.41;5089578;28;20066;-59
2024/01/12 07:22:30;;;;;;;29.17;11.70;;;;;;;0.90;100.00;103272.56;5089709;28;20036;-59
2024/01/12 07:24:56;;;;;;;25.63;13.00;;;;;;;0.92;100.00;103272.63;5088263;28;20031;-59
2024/01/12 07:27:21;;;;;;;30.00;13.80;;;;;;;0.88;100.00;103255.97;5089695;28;20387;-59
2024/01/12 07:29:46;;;;;;;29.73;12.67;;;;;;;0.95;100.00;103262.19;5089792;28;20111;-59
2024/01/12 07:32:12;;;;;;;28.77;13.87;;;;;;;0.96;100.00;103249.97;5089892;28;20482;-59
2024/01/12 07:34:37;;;;;;;25.40;13.37;;;;;;;0.97;100.00;103254.34;5092834;28;20024;-59
2024/01/12 07:37:03;;;;;;;36.22;15.15;;;;;;;0.97;100.00;103251.72;5093758;28;20065;-59
2024/01/12 07:39:28;;;;;;;22.43;12.60;;;;;;;0.99;100.00;103255.25;5093402;28;20047;-59
2024/01/12 07:41:56;;;;;;;30.37;12.87;;;;;;;0.90;100.00;103241.16;5091653;28;20024;-60
2024/01/12 07:44:24;;;;;;;25.45;13.32;;;;;;;0.96;100.00;103252.59;5093232;28;20028;-59
2024/01/12 07:46:49;;;;;;;21.70;11.87;;;;;;;0.98;100.00;103251.75;5092682;28;20040;-59
2024/01/12 07:49:15;;;;;;;24.17;12.07;;;;;;;0.99;100.00;103256.13;5092174;28;20039;-59
2024/01/12 07:51:40;;;;;;;24.83;12.60;;;;;;;1.00;100.00;103264.88;5090180;28;20058;-59
2024/01/12 07:54:06;;;;;;;34.50;13.50;;;;;;;1.02;100.00;103261.41;5091723;28;20399;-59
2024/01/12 07:56:31;;;;;;;28.30;13.47;;;;;;;0.96;100.00;103248.22;5092616;28;20028;-59
2024/01/12 07:58:57;;;;;;;26.80;14.00;;;;;;;1.06;100.00;103254.47;5092468;28;20022;-59
2024/01/12 08:01:23;;;;;;;29.97;13.03;;;;;;;1.06;100.00;103250.16;5084815;28;20020;-59
2024/01/12 08:03:48;;;;;;;21.67;12.43;;;;;;;1.03;100.00;103247.47;5092562;28;20500;-59
2024/01/12 08:06:15;;;;;;;29.53;12.97;;;;;;;1.07;100.00;103248.41;5090894;28;20023;-59
2024/01/12 08:08:40;;;;;;;30.93;11.87;;;;;;;1.04;100.00;103237.88;5092301;28;20044;-59
2024/01/12 08:11:06;;;;;;;29.03;13.97;;;;;;;1.10;100.00;103256.31;5090159;28;20112;-59
2024/01/12 08:13:31;;;;;;;29.87;12.93;;;;;;;1.13;100.00;103248.50;5092048;28;20474;-59
2024/01/12 08:15:57;;;;;;;20.55;11.85;;;;;;;1.10;100.00;103253.69;5092437;28;20103;-59
2024/01/12 08:18:22;;;;;;;32.27;13.37;;;;;;;1.14;100.00;103258.09;5092177;28;20024;-59
2024/01/12 08:20:50;;;;;;;29.00;12.90;;;;;;;1.10;100.00;103245.81;5093404;28;20063;-59
2024/01/12 08:23:16;;;;;;;33.28;12.93;;;;;;;1.15;100.00;103257.25;5091550;28;20116;-59
2024/01/12 08:25:42;;;;;;;29.60;12.73;;;;;;;1.07;100.00;103246.66;5092306;28;20485;-59
2024/01/12 08:28:07;;;;;;;21.53;13.03;;;;;;;1.08;100.00;103240.53;5091645;28;20417;-59
2024/01/12 08:30:34;;;;;;;21.33;12.75;;;;;;;1.17;100.00;103262.50;5093485;28;20055;-59
2024/01/12 08:32:59;;;;;;;30.75;12.52;;;;;;;1.17;100.00;103263.38;5091921;28;20036;-59
2024/01/12 08:35:26;;;;;;;19.43;12.20;;;;;;;1.10;100.00;103240.59;5093388;28;20042;-59
2024/01/12 08:37:51;;;;;;;23.07;12.20;;;;;;;1.17;100.00;103252.91;5091792;28;20027;-59
2024/01/12 08:40:17;;;;;;;20.38;11.65;;;;;;;1.24;100.00;103262.63;5092757;28;20382;-59
2024/01/12 08:42:42;;;;;;;23.50;12.05;;;;;;;1.28;100.00;103274.91;5091583;28;20497;-59
2024/01/12 08:45:08;;;;;;;24.80;12.07;;;;;;;1.22;100.00;103256.47;5089736;28;20031;-59
2024/01/12 08:47:33;;;;;;;30.67;14.05;;;;;;;1.30;100.00;103275.84;5091098;28;20059;-59
2024/01/12 08:49:59;;;;;;;31.87;13.33;;;;;;;1.33;100.00;103277.63;5090953;28;20032;-59
2024/01/12 08:52:24;;;;;;;22.80;12.97;;;;;;;1.33;100.00;103273.25;5092685;28;20478;-59
2024/01/12 08:54:50;;;;;;;23.58;12.48;;;;;;;1.34;100.00;103275.00;5092528;28;20031;-59
2024/01/12 08:57:16;;;;;;;27.85;12.70;;;;;;;1.37;100.00;103274.16;5089746;28;20077;-66
2024/01/12 08:59:41;;;;;;;24.40;12.57;;;;;;;1.44;100.00;103260.31;5091348;28;20496;-61
2024/01/12 09:02:07;;;;;;;27.87;12.83;;;;;;;1.40;100.00;103247.13;5092308;28;20688;-60
2024/01/12 09:04:33;;;;;;;30.40;12.47;;;;;;;1.51;100.00;103267.38;5093182;28;20016;-60
2024/01/12 09:06:59;;;;;;;23.15;12.13;;;;;;;1.52;100.00;103266.50;5092512;28;20039;-60
2024/01/12 09:09:24;;;;;;;26.83;12.00;;;;;;;1.34;100.00;103234.81;5091416;28;20023;-60
2024/01/12 09:11:49;;;;;;;23.60;12.27;;;;;;;1.56;100.00;103268.34;5091088;28;20453;-60
2024/01/12 09:14:15;;;;;;;24.85;13.57;;;;;;;1.57;100.00;103269.22;5092683;28;20024;-60
2024/01/12 09:16:40;;;;;;;24.13;12.13;;;;;;;1.58;100.00;103266.59;5091784;28;20020;-60
2024/01/12 09:19:07;;;;;;;26.63;13.13;;;;;;;1.60;100.00;103271.88;5092665;28;20475;-60
2024/01/12 09:21:32;;;;;;;31.17;13.68;;;;;;;1.63;100.00;103266.66;5092578;28;20539;-59
2024/01/12 09:23:58;;;;;;;26.50;13.93;;;;;;;1.64;100.00;103268.41;5092785;28;20065;-60
2024/01/12 09:26:26;;;;;;;29.07;12.50;;;;;;;1.66;100.00;103279.81;5090737;28;20024;-61
2024/01/12 09:28:51;;;;;;;26.67;12.82;;;;;;;1.67;100.00;103271.06;5090870;28;20031;-60
2024/01/12 09:31:19;;;;;;;33.40;14.40;;;;;;;1.66;100.00;103265.81;5092575;28;20024;-71
2024/01/12 09:33:49;;;;;;;28.80;13.70;;;;;;;1.63;100.00;103248.31;5092287;28;20035;-72
2024/01/12 09:36:14;;;;;;;23.05;12.57;;;;;;;1.72;100.00;103252.78;5092597;28;20475;-71
2024/01/12 09:38:42;;;;;;;27.40;11.97;;;;;;;1.68;100.00;103251.00;5091452;28;20034;-72
2024/01/12 09:41:10;;;;;;;28.03;10.87;;;;;;;1.71;100.00;103261.53;5091987;28;20098;-71
2024/01/12 09:43:36;;;;;;;34.90;12.60;;;;;;;1.78;100.00;103276.47;5091091;28;20120;-71
2024/01/12 09:46:05;;;;;;;30.70;11.88;;;;;;;1.76;100.00;103265.94;5091011;28;20055;-72
2024/01/12 09:48:30;;;;;;;25.95;13.40;;;;;;;1.77;100.00;103267.72;5091031;28;20089;-72
2024/01/12 09:50:56;;;;;;;31.48;13.52;;;;;;;1.84;100.00;103276.56;5091034;28;20024;-72
2024/01/12 09:53:22;;;;;;;26.55;11.80;;;;;;;1.77;100.00;103254.63;5090996;28;20034;-71
2024/01/12 09:55:49;;;;;;;24.25;11.80;;;;;;;1.86;100.00;103266.09;5090888;28;20020;-72
2024/01/12 09:58:17;;;;;;;23.47;11.83;;;;;;;1.78;100.00;103250.25;5092109;28;20486;-72
2024/01/12 10:00:44;;;;;;;26.63;12.75;;;;;;;1.87;100.00;103268.72;5091150;28;20024;-72
2024/01/12 10:03:10;;;;;;;23.00;11.68;;;;;;;1.83;100.00;103255.56;5092274;28;20066;-72
2024/01/12 10:05:37;;;;;;;25.23;12.23;;;;;;;1.82;100.00;103246.78;5092159;28;20028;-71
2024/01/12 10:08:04;;;;;;;24.63;11.93;;;;;;;1.95;100.00;103255.69;5090800;28;20027;-71
2024/01/12 10:10:29;;;;;;;22.40;12.10;;;;;;;1.92;100.00;103251.28;5091803;28;20024;-72
2024/01/12 10:12:57;;;;;;;16.08;9.50;;;;;;;2.00;100.00;103256.59;5090593;28;20029;-72
2024/01/12 10:15:23;;;;;;;24.73;12.90;;;;;;;1.97;100.00;103254.84;5091945;28;20363;-71
2024/01/12 10:17:51;;;;;;;27.52;12.45;;;;;;;1.91;100.00;103238.13;5090992;28;20027;-72
2024/01/12 10:20:17;;;;;;;25.17;11.98;;;;;;;2.03;100.00;103262.78;5091721;28;20107;-71
2024/01/12 10:22:43;;;;;;;25.02;12.60;;;;;;;2.03;100.00;103269.78;5091806;28;20051;-72
2024/01/12 10:25:08;;;;;;;32.53;13.45;;;;;;;1.96;100.00;103249.56;5090438;28;20436;-72
2024/01/12 10:27:33;;;;;;;36.78;11.85;;;;;;;2.07;100.00;103266.34;5091644;28;20036;-72
2024/01/12 10:29:59;;;;;;;24.33;11.30;;;;;;;2.05;100.00;103266.28;5090105;28;20062;-71
2024/01/12 10:32:25;;;;;;;28.33;12.60;;;;;;;2.11;100.00;103268.13;5091825;28;20051;-72
2024/01/12 10:34:53;;;;;;;22.33;12.38;;;;;;;1.98;100.00;103246.13;5090604;28;20163;-72
2024/01/12 10:37:20;;;;;;;27.88;11.88;;;;;;;2.04;100.00;103256.69;5091511;28;20415;-72
2024/01/12 10:39:49;;;;;;;30.88;11.85;;;;;;;2.12;100.00;103267.28;5090422;28;20042;-72
2024/01/12 10:42:16;;;;;;;27.23;12.40;;;;;;;2.15;100.00;103253.31;5103633;28;20047;-72
2024/01/12 10:44:43;;;;;;;26.65;12.43;;;;;;;2.15;100.00;103251.56;5110797;28;20026;-71
2024/01/12 10:47:16;;;;;;;36.90;13.50;;;;;;;2.17;100.00;103241.94;5102201;28;20076;-71
2024/01/12 10:50:07;;;;;;;21.65;12.57;;;;;;;2.22;100.00;103239.38;5090292;28;20063;-72
2024/01/12 10:52:45;;;;;;;25.00;10.95;;;;;;;2.19;100.00;103241.97;5086874;28;20036;-71
2024/01/12 10:55:15;;;;;;;25.05;12.93;;;;;;;2.20;100.00;103246.34;5069455;28;20135;-71
2024/01/12 10:57:42;;;;;;;;;;;;;;;2.20;100.00;103241.97;5080877;28;20020;-71
2024/01/12 11:00:10;;;;;;;15.05;8.88;;;;;;;2.18;100.00;103229.72;5090020;28;19915;-71
2024/01/12 11:02:36;;;;;;;23.30;11.98;;;;;;;2.10;100.00;103227.00;5090022;28;20024;-72